Time;durP1;ratioP1;P1;durP2;ratioP2;P2;SDS_P1;SDS_P2;PMS_P1;PMS_P2;Temp;Humidity;BMP_temperature;BMP_pressure;BME280_temperature;BME280_humidity;BME280_pressure;Samples;Min_cycle;Max_cycle;Signal;HPM_P1;HPM_P2
2022/05/10 00:00:56;;;;;;;4.05;3.53;;;;;;;15.48;nan;95521.06;5005318;28;20204;-77
2022/05/10 00:03:25;;;;;;;3.78;3.47;;;;;;;15.41;nan;95518.84;5004883;28;20596;-75
2022/05/10 00:05:51;;;;;;;4.47;4.13;;;;;;;15.45;nan;95528.88;5004526;28;20238;-77
2022/05/10 00:08:19;;;;;;;8.32;3.70;;;;;;;15.38;nan;95521.53;5006111;28;20748;-77
2022/05/10 00:10:47;;;;;;;4.82;3.75;;;;;;;15.35;nan;95519.09;5002697;28;20282;-76
2022/05/10 00:13:15;;;;;;;6.90;4.53;;;;;;;15.41;nan;95518.84;5003678;28;20254;-77
2022/05/10 00:15:43;;;;;;;5.55;4.05;;;;;;;15.25;nan;95518.69;5005200;28;20670;-77
2022/05/10 00:18:14;;;;;;;4.65;4.18;;;;;;;15.32;nan;95520.09;5005154;28;20680;-77
2022/05/10 00:20:42;;;;;;;9.23;4.18;;;;;;;15.31;nan;95516.69;5005497;28;20266;-77
2022/05/10 00:23:09;;;;;;;5.38;4.90;;;;;;;14.90;nan;95522.78;5000918;28;20207;-76
2022/05/10 00:25:38;;;;;;;7.57;4.50;;;;;;;14.75;nan;95524.28;5003473;28;20354;-76
2022/05/10 00:28:06;;;;;;;4.93;4.53;;;;;;;14.50;nan;95518.53;5002705;28;20756;-76
2022/05/10 00:30:34;;;;;;;4.70;4.22;;;;;;;14.44;nan;95529.00;5002437;28;20749;-76
2022/05/10 00:33:01;;;;;;;8.38;4.40;;;;;;;14.36;nan;95520.78;5002374;28;20236;-77
2022/05/10 00:35:31;;;;;;;5.00;4.07;;;;;;;14.40;nan;95528.28;5000798;28;20671;-77
2022/05/10 00:38:00;;;;;;;6.68;4.05;;;;;;;14.51;nan;95525.31;5001511;28;22375;-77
2022/05/10 00:40:29;;;;;;;5.07;4.57;;;;;;;14.63;nan;95519.69;5001385;28;20735;-77
2022/05/10 00:43:03;;;;;;;7.10;4.95;;;;;;;14.54;nan;95520.91;5002893;28;20202;-75
2022/05/10 00:45:39;;;;;;;5.13;4.50;;;;;;;14.36;nan;95526.72;5002323;28;20223;-77
2022/05/10 00:48:13;;;;;;;7.43;4.95;;;;;;;14.30;nan;95527.84;5002643;28;20203;-76
2022/05/10 00:50:44;;;;;;;5.18;4.03;;;;;;;14.24;nan;95519.56;5002031;28;20319;-77
2022/05/10 00:53:16;;;;;;;11.13;4.85;;;;;;;14.45;nan;95523.00;5003989;28;20273;-77
2022/05/10 00:55:48;;;;;;;6.70;4.25;;;;;;;14.24;nan;95528.06;5002936;28;20199;-77
2022/05/10 00:58:24;;;;;;;12.25;4.78;;;;;;;14.35;nan;95524.25;5002658;28;20863;-76
2022/05/10 01:00:55;;;;;;;22.10;4.35;;;;;;;13.76;nan;95520.63;5001658;28;20199;-76
2022/05/10 01:03:26;;;;;;;7.82;3.83;;;;;;;13.46;nan;95527.72;5002080;28;20207;-76
2022/05/10 01:06:00;;;;;;;5.88;4.18;;;;;;;13.46;nan;95517.50;5000369;28;20239;-76
2022/05/10 01:08:31;;;;;;;5.80;4.10;;;;;;;13.17;nan;95517.75;5000101;28;20203;-75
2022/05/10 01:11:03;;;;;;;6.03;4.15;;;;;;;12.64;nan;95522.16;5002871;28;20208;-77
2022/05/10 01:13:34;;;;;;;9.80;4.35;;;;;;;12.53;nan;95517.44;5002871;28;20254;-76
2022/05/10 01:16:07;;;;;;;4.38;3.50;;;;;;;12.39;nan;95519.59;5004605;28;20245;-76
2022/05/10 01:18:35;;;;;;;6.88;4.07;;;;;;;12.26;nan;95522.56;5003907;28;20275;-76
2022/05/10 01:21:15;;;;;;;5.43;3.55;;;;;;;12.06;nan;95512.19;5000821;28;20258;-76
2022/05/10 01:24:08;;;;;;;9.05;3.58;;;;;;;12.76;nan;95514.09;4999050;28;20254;-76
2022/05/10 01:26:51;;;;;;;3.83;3.45;;;;;;;13.25;nan;95514.03;4999776;28;21034;-76
2022/05/10 01:29:25;;;;;;;6.40;3.38;;;;;;;13.26;nan;95509.75;5001767;28;20204;-77
2022/05/10 01:35:29;;;;;;;5.47;4.05;;;;;;;13.16;nan;95462.50;5005653;28;20205;-77
2022/05/10 01:38:04;;;;;;;3.72;3.42;;;;;;;13.36;nan;95508.56;5009529;28;20196;-76
2022/05/10 01:40:45;;;;;;;7.22;3.88;;;;;;;13.45;nan;95517.56;5010038;28;20729;-76
2022/05/10 01:43:18;;;;;;;4.78;4.28;;;;;;;13.56;nan;95511.19;5008750;28;20237;-76
2022/05/10 01:46:23;;;;;;;3.20;2.90;;;;;;;13.59;nan;95505.97;5010676;28;20293;-76
2022/05/10 01:49:08;;;;;;;8.27;3.35;;;;;;;13.72;nan;95513.97;5008933;28;20907;-77
2022/05/10 01:51:44;;;;;;;8.07;3.65;;;;;;;13.79;nan;95501.81;5002925;28;20207;-76
2022/05/10 01:54:40;;;;;;;6.32;3.42;;;;;;;13.72;nan;95506.31;5003423;28;20241;-76
2022/05/10 01:57:10;;;;;;;3.30;3.10;;;;;;;13.80;nan;95501.75;5005494;28;20265;-77
2022/05/10 01:59:37;;;;;;;6.72;3.75;;;;;;;13.82;nan;95501.69;5000791;28;20208;-76
2022/05/10 02:02:08;;;;;;;4.35;3.95;;;;;;;13.63;nan;95502.38;5003338;28;20203;-77
2022/05/10 02:04:40;;;;;;;3.95;3.22;;;;;;;13.50;nan;95496.09;5002321;28;20207;-76
2022/05/10 02:07:14;;;;;;;5.53;3.80;;;;;;;13.51;nan;95502.84;5003113;28;20205;-77
2022/05/10 02:09:57;;;;;;;4.82;3.25;;;;;;;13.43;nan;95492.09;5004585;28;20299;-79
2022/05/10 02:12:35;;;;;;;4.85;3.47;;;;;;;13.51;nan;95490.09;5003031;28;20204;-77
2022/05/10 02:15:06;;;;;;;5.80;3.95;;;;;;;13.53;nan;95508.75;5003378;28;20211;-77
2022/05/10 02:17:40;;;;;;;6.10;3.55;;;;;;;13.56;nan;95508.63;5004152;28;20297;-76
2022/05/10 02:20:12;;;;;;;4.65;4.10;;;;;;;13.31;nan;95497.66;5000682;28;20212;-76
2022/05/10 02:22:43;;;;;;;5.57;3.85;;;;;;;12.56;nan;95507.97;5000262;28;20699;-79
2022/05/10 02:25:16;;;;;;;6.10;3.15;;;;;;;12.46;nan;95511.69;5001260;28;20281;-77
2022/05/10 02:27:48;;;;;;;7.90;4.05;;;;;;;12.74;nan;95506.50;5001178;28;20788;-78
2022/05/10 02:30:19;;;;;;;3.65;3.33;;;;;;;12.81;nan;95492.66;5003788;28;20199;-77
2022/05/10 02:33:09;;;;;;;8.25;4.22;;;;;;;12.76;nan;95503.91;5003660;28;20208;-76
2022/05/10 02:35:41;;;;;;;6.65;3.72;;;;;;;12.38;nan;95497.53;5003054;28;20204;-77
2022/05/10 02:38:10;;;;;;;8.23;3.63;;;;;;;12.23;nan;95498.91;5003502;28;20757;-77
2022/05/10 02:40:41;;;;;;;7.93;3.90;;;;;;;12.59;nan;95502.78;5002661;28;20211;-77
2022/05/10 02:43:10;;;;;;;8.40;3.55;;;;;;;12.56;nan;95476.53;5003080;28;20218;-79
2022/05/10 02:45:38;;;;;;;5.15;3.90;;;;;;;12.21;nan;95493.84;5003638;28;20259;-76
2022/05/10 02:48:15;;;;;;;5.38;3.92;;;;;;;12.04;nan;95506.31;5004415;28;20219;-76
2022/05/10 02:50:42;;;;;;;10.15;5.28;;;;;;;12.01;nan;95508.13;5001694;28;20637;-76
2022/05/10 02:53:09;;;;;;;6.63;3.80;;;;;;;12.03;nan;95501.25;5002607;28;20286;-76
2022/05/10 02:55:43;;;;;;;3.60;3.30;;;;;;;12.47;nan;95502.34;5001046;28;20297;-78
2022/05/10 02:58:16;;;;;;;3.80;3.20;;;;;;;12.75;nan;95513.25;5003721;28;20199;-77
2022/05/10 03:00:42;;;;;;;4.47;3.40;;;;;;;12.92;nan;95503.28;5002743;28;20249;-78
2022/05/10 03:03:18;;;;;;;5.20;3.90;;;;;;;12.96;nan;95516.78;5001356;28;20282;-77
2022/05/10 03:05:45;;;;;;;5.20;4.10;;;;;;;12.38;nan;95510.28;4999709;28;20618;-77
2022/05/10 03:08:12;;;;;;;4.55;4.20;;;;;;;12.04;nan;95508.88;5002196;28;20207;-76
2022/05/10 03:10:39;;;;;;;10.65;4.60;;;;;;;11.87;nan;95517.06;4998815;28;20673;-77
2022/05/10 03:13:06;;;;;;;7.78;3.85;;;;;;;11.84;nan;95506.13;5003206;28;20227;-79
2022/05/10 03:15:33;;;;;;;11.10;4.88;;;;;;;11.76;nan;95515.66;5002908;28;20200;-78
2022/05/10 03:17:59;;;;;;;9.88;3.63;;;;;;;11.72;nan;95511.53;5002657;28;20232;-78
2022/05/10 03:20:28;;;;;;;5.05;3.67;;;;;;;11.59;nan;95509.38;5001180;28;20691;-77
2022/05/10 03:22:54;;;;;;;7.72;4.28;;;;;;;11.80;nan;95500.28;4998938;28;20205;-78
2022/05/10 03:25:22;;;;;;;3.97;3.67;;;;;;;11.85;nan;95511.16;4999200;28;20726;-77
2022/05/10 03:27:49;;;;;;;8.10;3.40;;;;;;;11.77;nan;95504.63;5001778;28;20289;-77
2022/05/10 03:30:17;;;;;;;12.50;3.90;;;;;;;12.09;nan;95504.47;5001908;28;20234;-76
2022/05/10 03:32:44;;;;;;;9.80;3.92;;;;;;;12.45;nan;95506.66;5003829;28;20207;-79
2022/05/10 03:35:13;;;;;;;7.07;4.07;;;;;;;12.89;nan;95516.16;5005005;28;20911;-77
2022/05/10 03:37:42;;;;;;;8.25;3.63;;;;;;;13.07;nan;95511.31;5006221;28;20208;-76
2022/05/10 03:40:10;;;;;;;8.80;4.63;;;;;;;13.23;nan;95525.19;5005852;28;20208;-77
2022/05/10 03:42:43;;;;;;;6.88;4.60;;;;;;;13.23;nan;95525.19;5004566;28;20215;-78
2022/05/10 03:45:12;;;;;;;8.10;3.72;;;;;;;13.41;nan;95529.59;5006890;28;20204;-77
2022/05/10 03:47:39;;;;;;;9.10;3.33;;;;;;;13.31;nan;95522.38;5006678;28;20203;-77
2022/05/10 03:50:08;;;;;;;4.55;3.63;;;;;;;13.55;nan;95524.00;5002678;28;20659;-76
2022/05/10 03:52:36;;;;;;;4.90;3.67;;;;;;;13.04;nan;95519.06;5005751;28;21874;-77
2022/05/10 03:55:06;;;;;;;6.20;3.63;;;;;;;12.55;nan;95523.31;5007636;28;20725;-77
2022/05/10 03:57:33;;;;;;;8.82;3.80;;;;;;;12.55;nan;95524.16;5007556;28;20212;-78
2022/05/10 03:59:59;;;;;;;8.57;3.60;;;;;;;13.26;nan;95530.19;5010812;28;20815;-77
2022/05/10 04:02:26;;;;;;;4.43;3.38;;;;;;;13.85;nan;95535.59;5004613;28;20285;-78
2022/05/10 04:04:53;;;;;;;5.57;3.55;;;;;;;14.27;nan;95532.25;5006631;28;20210;-77
2022/05/10 04:07:19;;;;;;;6.78;3.63;;;;;;;14.55;nan;95521.75;5004410;28;20704;-76
2022/05/10 04:09:46;;;;;;;28.38;8.82;;;;;;;14.56;nan;95528.53;5006840;28;20359;-77
2022/05/10 04:12:14;;;;;;;32.67;14.38;;;;;;;14.16;nan;95531.81;5006654;28;20360;-76
2022/05/10 04:14:41;;;;;;;21.65;13.70;;;;;;;13.93;nan;95543.78;5005761;28;20676;-77
2022/05/10 04:17:08;;;;;;;8.15;4.53;;;;;;;14.05;nan;95534.81;5003699;28;20240;-77
2022/05/10 04:19:35;;;;;;;8.07;4.50;;;;;;;13.96;nan;95527.50;5007272;28;20200;-77
2022/05/10 04:22:02;;;;;;;5.90;4.20;;;;;;;13.57;nan;95551.16;5007092;28;20257;-78
2022/05/10 04:24:28;;;;;;;11.77;4.82;;;;;;;13.53;nan;95546.22;5005218;28;20206;-76
2022/05/10 04:26:55;;;;;;;6.03;4.35;;;;;;;13.52;nan;95545.38;5004225;28;20301;-76
2022/05/10 04:29:23;;;;;;;8.05;3.90;;;;;;;13.65;nan;95547.44;5004579;28;20203;-80
2022/05/10 04:31:50;;;;;;;32.45;17.08;;;;;;;14.57;nan;95548.09;5006902;28;20269;-76
2022/05/10 04:34:17;;;;;;;29.48;17.63;;;;;;;15.40;nan;95548.72;5005493;28;20268;-76
2022/05/10 04:36:44;;;;;;;13.23;7.47;;;;;;;15.76;nan;95514.69;5005115;28;20208;-76
2022/05/10 04:39:11;;;;;;;8.35;5.80;;;;;;;15.00;nan;95541.97;5004317;28;20680;-76
2022/05/10 04:41:42;;;;;;;20.63;9.48;;;;;;;15.05;nan;95539.22;5006491;28;20204;-76
2022/05/10 04:44:11;;;;;;;13.75;8.93;;;;;;;15.45;nan;95525.47;5003424;28;20679;-77
2022/05/10 04:46:42;;;;;;;15.07;7.32;;;;;;;15.92;nan;95546.38;5004668;28;20239;-76
2022/05/10 04:49:10;;;;;;;12.85;6.43;;;;;;;16.32;nan;95541.06;5004899;28;20200;-77
2022/05/10 04:51:38;;;;;;;10.23;5.72;;;;;;;16.37;nan;95548.50;5005401;28;20671;-77
2022/05/10 04:54:05;;;;;;;8.20;5.80;;;;;;;16.60;nan;95531.97;5004159;28;20308;-78
2022/05/10 04:56:32;;;;;;;13.45;6.00;;;;;;;16.94;nan;95544.00;5003469;28;20289;-77
2022/05/10 04:58:59;;;;;;;16.75;5.90;;;;;;;17.22;nan;95544.22;5002659;28;20203;-76
2022/05/10 05:01:29;;;;;;;13.38;5.57;;;;;;;17.68;nan;95547.81;5003315;28;20200;-78
2022/05/10 05:03:59;;;;;;;14.50;5.57;;;;;;;18.46;nan;95553.78;5005876;28;20876;-78
2022/05/10 05:06:27;;;;;;;9.95;7.35;;;;;;;18.92;nan;95546.03;5003346;28;20242;-76
2022/05/10 05:08:53;;;;;;;23.80;11.98;;;;;;;19.13;nan;95551.66;5006691;28;20195;-77
2022/05/10 05:11:20;;;;;;;10.25;6.32;;;;;;;19.40;nan;95539.69;5005791;28;20691;-77
2022/05/10 05:13:47;;;;;;;10.52;5.78;;;;;;;19.32;nan;95541.88;5004918;28;20675;-78
2022/05/10 05:16:14;;;;;;;13.63;7.30;;;;;;;20.72;nan;95543.41;5006572;28;20235;-79
2022/05/10 05:18:41;;;;;;;15.77;7.55;;;;;;;20.84;nan;95544.34;5007215;28;20298;-80
2022/05/10 05:21:10;;;;;;;11.25;7.60;;;;;;;21.28;nan;95533.66;5004609;28;20892;-80
2022/05/10 05:23:37;;;;;;;14.57;9.45;;;;;;;23.46;nan;95541.13;5004645;28;20205;-77
2022/05/10 05:26:04;;;;;;;17.23;8.25;;;;;;;25.02;nan;95536.34;5003242;28;20384;-78
2022/05/10 05:28:31;;;;;;;17.83;7.60;;;;;;;27.09;nan;95527.81;5004812;28;20200;-77
2022/05/10 05:30:59;;;;;;;10.20;6.97;;;;;;;29.33;nan;95525.31;5004218;28;20204;-77
2022/05/10 05:33:26;;;;;;;8.40;7.60;;;;;;;30.01;nan;95521.88;5005864;28;20204;-79
2022/05/10 05:35:53;;;;;;;14.75;6.85;;;;;;;29.34;nan;95502.56;5004271;28;20196;-79
2022/05/10 05:38:24;;;;;;;12.15;6.38;;;;;;;28.45;nan;95526.25;5004691;28;20196;-78
2022/05/10 05:40:51;;;;;;;8.75;6.07;;;;;;;28.07;nan;95511.63;5003440;28;20285;-76
2022/05/10 05:43:19;;;;;;;17.33;6.45;;;;;;;28.04;nan;95520.56;5006099;28;20210;-76
2022/05/10 05:45:47;;;;;;;11.77;6.80;;;;;;;28.35;nan;95515.84;5003810;28;20219;-77
2022/05/10 05:48:13;;;;;;;16.98;6.97;;;;;;;27.63;nan;95516.66;5003300;28;20238;-78
2022/05/10 05:50:40;;;;;;;9.93;5.78;;;;;;;27.37;nan;95523.47;5001713;28;20254;-76
2022/05/10 05:53:07;;;;;;;13.40;6.00;;;;;;;29.54;nan;95514.47;5005520;28;20344;-76
2022/05/10 05:55:36;;;;;;;14.25;6.28;;;;;;;31.29;nan;95497.72;5002361;28;20204;-77
2022/05/10 05:58:03;;;;;;;11.27;5.53;;;;;;;32.25;nan;95505.44;5002656;28;20199;-75
2022/05/10 06:00:30;;;;;;;10.43;6.05;;;;;;;31.95;nan;95507.84;4998304;28;20211;-78
2022/05/10 06:02:57;;;;;;;16.02;10.77;;;;;;;32.21;nan;95512.03;5002428;28;20199;-76
2022/05/10 06:05:25;;;;;;;17.02;9.25;;;;;;;31.94;nan;95502.75;5004253;28;20626;-76
2022/05/10 06:07:52;;;;;;;8.73;6.15;;;;;;;30.80;nan;95518.75;5002218;28;20249;-82
2022/05/10 06:10:19;;;;;;;10.13;5.07;;;;;;;30.84;nan;95498.25;5002760;28;21087;-78
2022/05/10 06:12:48;;;;;;;42.88;6.90;;;;;;;30.89;nan;95515.16;5000658;28;20196;-78
2022/05/10 06:15:18;;;;;;;15.27;5.90;;;;;;;30.97;nan;95512.50;5003582;28;20207;-78
2022/05/10 06:17:46;;;;;;;8.30;5.88;;;;;;;31.05;nan;95522.19;5003014;28;20258;-78
2022/05/10 06:20:15;;;;;;;8.52;5.50;;;;;;;30.74;nan;95519.41;5005229;28;20208;-80
2022/05/10 06:22:44;;;;;;;16.73;5.10;;;;;;;30.40;nan;95515.13;5004679;28;20337;-81
2022/05/10 06:25:13;;;;;;;9.38;4.78;;;;;;;29.98;nan;95511.69;5002493;28;20677;-79
2022/05/10 06:27:40;;;;;;;7.65;5.18;;;;;;;30.42;nan;95509.72;5003434;28;20281;-78
2022/05/10 06:30:09;;;;;;;8.95;5.25;;;;;;;30.42;nan;95509.72;5003257;28;20204;-78
2022/05/10 06:32:36;;;;;;;6.55;5.30;;;;;;;30.50;nan;95507.06;5003362;28;20203;-76
2022/05/10 06:35:03;;;;;;;10.18;5.85;;;;;;;30.46;nan;95516.25;5004258;28;20207;-79
2022/05/10 06:40:16;;;;;;;15.02;9.98;;;;;;;30.62;nan;95500.56;5002840;28;20895;-75
2022/05/10 06:42:44;;;;;;;12.38;4.95;;;;;;;30.56;nan;95474.16;5002828;28;20204;-75
2022/05/10 06:45:15;;;;;;;10.82;5.15;;;;;;;30.44;nan;95502.47;5003713;28;20205;-78
2022/05/10 06:47:46;;;;;;;5.97;5.28;;;;;;;29.14;nan;95501.13;5004236;28;20263;-76
2022/05/10 06:50:17;;;;;;;6.40;4.18;;;;;;;28.77;nan;95507.38;5003522;28;20691;-76
2022/05/10 06:52:44;;;;;;;8.93;4.18;;;;;;;28.06;nan;95509.97;5003151;28;20253;-75
2022/05/10 06:55:11;;;;;;;11.93;4.10;;;;;;;27.63;nan;95511.44;5002376;28;20214;-76
2022/05/10 06:57:38;;;;;;;3.78;3.55;;;;;;;27.75;nan;95506.84;5005689;28;20211;-77
2022/05/10 07:00:08;;;;;;;12.10;5.32;;;;;;;27.42;nan;95503.00;5001543;28;20325;-77
2022/05/10 07:02:36;;;;;;;6.80;4.20;;;;;;;27.75;nan;95497.22;5003488;28;20719;-76
2022/05/10 07:05:04;;;;;;;8.80;4.70;;;;;;;27.98;nan;95504.66;5002642;28;20208;-79
2022/05/10 07:07:31;;;;;;;7.20;3.88;;;;;;;27.68;nan;95485.72;5004708;28;20246;-78
2022/05/10 07:09:57;;;;;;;18.45;4.95;;;;;;;27.16;nan;95502.81;5007670;28;20204;-77
2022/05/10 07:12:24;;;;;;;6.22;4.25;;;;;;;27.21;nan;95503.22;5005553;28;20262;-77
2022/05/10 07:14:51;;;;;;;13.43;6.65;;;;;;;27.09;nan;95505.16;5007295;28;20192;-76
2022/05/10 07:17:18;;;;;;;6.97;4.22;;;;;;;26.99;nan;95504.34;5007523;28;20235;-76
2022/05/10 07:19:47;;;;;;;16.33;4.10;;;;;;;26.93;nan;95504.91;5007248;28;20219;-79
2022/05/10 07:22:14;;;;;;;11.00;4.18;;;;;;;26.78;nan;95498.44;5004732;28;20215;-77
2022/05/10 07:24:40;;;;;;;9.93;4.40;;;;;;;25.46;nan;95500.59;5006504;28;20703;-76
2022/05/10 07:27:07;;;;;;;8.15;3.80;;;;;;;24.61;nan;95508.56;5007126;28;20243;-76
2022/05/10 07:29:34;;;;;;;19.05;4.50;;;;;;;24.76;nan;95511.66;5007814;28;20200;-77
2022/05/10 07:32:01;;;;;;;9.35;5.13;;;;;;;24.96;nan;95508.28;5007057;28;20208;-77
2022/05/10 07:34:28;;;;;;;15.55;6.28;;;;;;;25.26;nan;95501.44;5006558;28;20204;-76
2022/05/10 07:36:56;;;;;;;12.95;6.13;;;;;;;25.36;nan;95500.53;5007178;28;22190;-78
2022/05/10 07:39:24;;;;;;;10.93;4.15;;;;;;;25.25;nan;95505.81;5005834;28;20207;-76
2022/05/10 07:41:54;;;;;;;11.30;5.05;;;;;;;25.43;nan;95506.88;5006345;28;20204;-77
2022/05/10 07:44:22;;;;;;;12.90;6.40;;;;;;;25.70;nan;95508.09;5005735;28;20211;-76
2022/05/10 07:46:50;;;;;;;43.60;15.90;;;;;;;25.86;nan;95487.56;5011883;28;20236;-78
2022/05/10 07:49:16;;;;;;;15.30;6.28;;;;;;;25.71;nan;95502.75;5016577;28;20200;-76
2022/05/10 07:51:43;;;;;;;27.58;12.98;;;;;;;25.34;nan;95489.44;5018143;28;20659;-77
2022/05/10 07:54:11;;;;;;;15.85;7.10;;;;;;;25.03;nan;95496.41;5008673;28;20269;-77
2022/05/10 07:56:38;;;;;;;6.95;5.03;;;;;;;25.00;nan;95508.81;5007639;28;20313;-78
2022/05/10 07:59:05;;;;;;;4.15;3.80;;;;;;;24.81;nan;95488.72;5004708;28;20668;-77
2022/05/10 08:01:32;;;;;;;7.13;4.85;;;;;;;24.93;nan;95497.28;5007299;28;20274;-76
2022/05/10 08:03:59;;;;;;;7.07;4.78;;;;;;;24.90;nan;95498.34;5005822;28;20203;-75
2022/05/10 08:06:27;;;;;;;16.73;5.25;;;;;;;24.83;nan;95492.00;5005010;28;20720;-76
2022/05/10 08:08:54;;;;;;;20.52;5.65;;;;;;;24.81;nan;95478.31;5006838;28;20212;-78
2022/05/10 08:11:23;;;;;;;8.27;4.63;;;;;;;24.72;nan;95484.28;5005941;28;20215;-76
2022/05/10 08:13:50;;;;;;;5.63;2.75;;;;;;;24.73;nan;95493.75;5006684;28;20592;-77
2022/05/10 08:16:17;;;;;;;5.78;3.58;;;;;;;24.71;nan;95498.25;5005569;28;20885;-76
2022/05/10 08:18:45;;;;;;;4.90;2.25;;;;;;;24.67;nan;95483.84;5005456;28;20199;-75
2022/05/10 08:21:14;;;;;;;48.95;7.80;;;;;;;25.16;nan;95483.19;5008673;28;20298;-76
2022/05/10 08:23:41;;;;;;;17.75;6.07;;;;;;;25.32;nan;95480.94;5006285;28;20703;-78
2022/05/10 08:26:08;;;;;;;9.75;2.47;;;;;;;25.55;nan;95480.72;5004925;28;20206;-76
2022/05/10 08:28:37;;;;;;;19.52;3.92;;;;;;;25.82;nan;95475.75;5006672;28;20246;-76
2022/05/10 08:31:06;;;;;;;6.53;1.65;;;;;;;25.50;nan;95475.09;5006257;28;20204;-75
2022/05/10 08:33:35;;;;;;;2.47;2.10;;;;;;;25.05;nan;95476.28;5006553;28;20671;-77
2022/05/10 08:36:02;;;;;;;4.00;2.30;;;;;;;24.34;nan;95464.88;5005387;28;21291;-77
2022/05/10 08:38:31;;;;;;;5.72;2.92;;;;;;;24.47;nan;95474.28;5004978;28;20699;-77
2022/05/10 08:41:02;;;;;;;12.00;3.25;;;;;;;24.67;nan;95473.44;5003802;28;20264;-77
2022/05/10 08:43:34;;;;;;;2.85;2.17;;;;;;;24.94;nan;95473.75;5005423;28;20749;-79
2022/05/10 08:46:03;;;;;;;3.13;2.13;;;;;;;25.06;nan;95471.91;5005438;28;20225;-77
2022/05/10 08:48:32;;;;;;;4.35;2.70;;;;;;;25.11;nan;95463.72;5008241;28;20316;-77
2022/05/10 08:51:00;;;;;;;4.32;2.60;;;;;;;25.19;nan;95467.34;5005261;28;20208;-78
2022/05/10 08:53:27;;;;;;;13.45;5.05;;;;;;;24.94;nan;95445.16;5006792;28;20675;-76
2022/05/10 08:56:00;;;;;;;8.63;4.07;;;;;;;24.87;nan;95462.22;5005290;28;20203;-78
2022/05/10 08:58:41;;;;;;;2.50;2.20;;;;;;;24.47;nan;95458.69;5006928;28;20292;-76
2022/05/10 09:01:14;;;;;;;6.28;2.30;;;;;;;24.24;nan;95460.53;5005662;28;20642;-77
2022/05/10 09:03:45;;;;;;;11.60;3.42;;;;;;;24.35;nan;95450.94;5006444;28;20193;-80
2022/05/10 09:06:24;;;;;;;3.78;3.20;;;;;;;24.75;nan;95448.44;5008061;28;20204;-77
2022/05/10 09:09:03;;;;;;;3.90;3.13;;;;;;;24.97;nan;95450.13;5004595;28;20241;-77
2022/05/10 09:11:42;;;;;;;6.53;2.38;;;;;;;25.18;nan;95454.47;5005002;28;20199;-77
2022/05/10 09:14:13;;;;;;;2.53;2.15;;;;;;;25.42;nan;95444.56;5006349;28;20258;-72
2022/05/10 09:16:41;;;;;;;2.70;2.55;;;;;;;25.67;nan;95441.50;5004473;28;20277;-73
2022/05/10 09:19:11;;;;;;;4.63;2.58;;;;;;;25.58;nan;95452.66;5004336;28;20204;-72
2022/05/10 09:21:48;;;;;;;2.85;2.65;;;;;;;24.80;nan;95452.44;5002786;28;20255;-72
2022/05/10 09:24:24;;;;;;;4.13;3.13;;;;;;;24.93;nan;95451.31;5004483;28;20207;-71
2022/05/10 09:26:56;;;;;;;2.40;2.30;;;;;;;25.18;nan;95444.88;5001890;28;20228;-72
2022/05/10 09:29:32;;;;;;;2.97;2.60;;;;;;;24.87;nan;95446.59;5004349;28;20210;-71
2022/05/10 09:35:00;;;;;;;4.25;2.05;;;;;;;24.08;nan;95440.16;5004204;28;20353;-72
2022/05/10 09:37:31;;;;;;;2.08;1.98;;;;;;;23.77;nan;95427.97;5004517;28;20277;-73
2022/05/10 09:40:10;;;;;;;2.13;1.95;;;;;;;23.82;nan;95431.88;5002696;28;20219;-72
2022/05/10 09:42:40;;;;;;;3.85;2.50;;;;;;;23.98;nan;95436.66;5004890;28;20285;-74
2022/05/10 09:45:13;;;;;;;2.28;1.83;;;;;;;24.46;nan;95433.66;5004196;28;20735;-73
2022/05/10 09:47:55;;;;;;;2.53;2.33;;;;;;;24.12;nan;95425.97;5002822;28;20372;-72
2022/05/10 09:50:27;;;;;;;3.38;3.13;;;;;;;24.01;nan;95431.22;5003584;28;20237;-72
2022/05/10 09:53:09;;;;;;;2.72;2.53;;;;;;;24.19;nan;95429.75;5003856;28;20204;-71
2022/05/10 09:55:36;;;;;;;2.45;1.92;;;;;;;24.20;nan;95430.56;5001555;28;20702;-72
2022/05/10 09:58:15;;;;;;;2.78;2.30;;;;;;;24.24;nan;95417.22;5004297;28;20204;-71
2022/05/10 10:00:44;;;;;;;3.17;2.80;;;;;;;24.54;nan;95407.84;5004313;28;21298;-71
2022/05/10 10:03:24;;;;;;;4.45;2.35;;;;;;;24.68;nan;95415.31;4999684;28;20236;-72
2022/05/10 10:05:50;;;;;;;4.40;2.60;;;;;;;24.82;nan;95409.78;5004183;28;20200;-74
2022/05/10 10:08:17;;;;;;;2.60;1.88;;;;;;;24.26;nan;95411.88;5003409;28;21016;-73
2022/05/10 10:10:45;;;;;;;4.75;2.17;;;;;;;24.35;nan;95408.53;5003848;28;20686;-73
2022/05/10 10:13:28;;;;;;;3.50;3.20;;;;;;;24.80;nan;95403.06;5001796;28;20338;-70
2022/05/10 10:15:55;;;;;;;5.70;2.72;;;;;;;24.47;nan;95397.16;5003479;28;20206;-74
2022/05/10 10:18:43;;;;;;;4.10;2.40;;;;;;;24.46;nan;95389.47;5002770;28;21629;-74
2022/05/10 10:21:12;;;;;;;5.10;2.85;;;;;;;24.60;nan;95381.34;5003274;28;20698;-71
2022/05/10 10:23:45;;;;;;;4.50;2.60;;;;;;;24.34;nan;95380.91;4999983;28;20250;-76
2022/05/10 10:26:19;;;;;;;2.35;2.15;;;;;;;24.12;nan;95384.44;5002386;28;20608;-74
2022/05/10 10:28:51;;;;;;;5.18;2.30;;;;;;;24.22;nan;95380.16;5000937;28;20321;-75
2022/05/10 10:31:23;;;;;;;3.28;1.90;;;;;;;24.63;nan;95373.28;5005294;28;20727;-75
2022/05/10 10:33:58;;;;;;;3.25;2.17;;;;;;;24.59;nan;95375.31;4997387;28;20210;-76
2022/05/10 10:36:33;;;;;;;5.55;2.50;;;;;;;24.34;nan;95379.16;5001665;28;20199;-75
2022/05/10 10:39:05;;;;;;;6.85;2.28;;;;;;;24.95;nan;95368.00;5000730;28;20207;-76
2022/05/10 10:41:39;;;;;;;2.63;2.50;;;;;;;25.22;nan;95367.41;5004472;28;20617;-77
2022/05/10 10:44:13;;;;;;;4.68;2.22;;;;;;;25.08;nan;95366.81;5008252;28;20585;-76
2022/05/10 10:46:48;;;;;;;4.30;2.78;;;;;;;25.50;nan;95368.41;5005375;28;20212;-77
2022/05/10 10:49:23;;;;;;;4.30;2.97;;;;;;;25.47;nan;95346.09;5016080;28;20226;-77
2022/05/10 10:51:51;;;;;;;2.30;2.20;;;;;;;25.44;nan;95369.78;5015847;28;20701;-78
2022/05/10 10:54:19;;;;;;;2.75;2.53;;;;;;;25.34;nan;95345.50;5005314;28;20280;-77
2022/05/10 10:57:22;;;;;;;2.10;2.00;;;;;;;25.40;nan;95356.22;5005479;28;20200;-76
2022/05/10 11:00:07;;;;;;;4.55;2.22;;;;;;;25.17;nan;95343.56;5004887;28;22039;-78
2022/05/10 11:03:12;;;;;;;3.80;2.85;;;;;;;25.01;nan;95359.66;5006054;28;20669;-76
2022/05/10 11:06:14;;;;;;;18.55;3.20;;;;;;;25.01;nan;95339.69;4987400;28;20278;-77
2022/05/10 11:09:11;;;;;;;2.22;2.05;;;;;;;24.84;nan;95342.06;5004126;28;20726;-77
2022/05/10 11:11:52;;;;;;;4.35;2.40;;;;;;;25.05;nan;95341.06;5002333;28;20204;-76
2022/05/10 11:14:35;;;;;;;2.67;2.47;;;;;;;25.30;nan;95328.53;5005482;28;20203;-76
2022/05/10 11:17:11;;;;;;;2.33;2.13;;;;;;;25.25;nan;95328.91;5005204;28;20885;-76
2022/05/10 11:19:51;;;;;;;8.48;2.40;;;;;;;24.31;nan;95334.41;5006400;28;20679;-76
2022/05/10 11:22:34;;;;;;;5.05;2.53;;;;;;;24.02;nan;95324.63;5007943;28;20211;-77
2022/05/10 11:25:12;;;;;;;3.35;2.03;;;;;;;24.15;nan;95314.06;5008100;28;20208;-77
2022/05/10 11:28:00;;;;;;;3.72;2.25;;;;;;;24.87;nan;95328.78;5006268;28;20344;-77
2022/05/10 11:30:35;;;;;;;2.35;2.13;;;;;;;24.52;nan;95326.59;5005361;28;20208;-77
2022/05/10 11:33:12;;;;;;;1.90;1.80;;;;;;;24.80;nan;95320.69;5006421;28;20254;-76
2022/05/10 11:36:05;;;;;;;4.28;2.40;;;;;;;24.83;nan;95307.44;5006985;28;20234;-78
2022/05/10 11:39:07;;;;;;;2.35;2.10;;;;;;;25.45;nan;95298.56;5004084;28;20207;-78
2022/05/10 11:41:41;;;;;;;1.85;1.75;;;;;;;26.01;nan;95295.25;5004404;28;20712;-78
2022/05/10 11:44:35;;;;;;;2.42;2.33;;;;;;;25.43;nan;95295.28;5005833;28;20721;-77
2022/05/10 11:47:36;;;;;;;2.63;2.05;;;;;;;24.41;nan;95289.38;5007211;28;20743;-77
2022/05/10 11:50:28;;;;;;;2.22;1.95;;;;;;;23.73;nan;95295.09;5006942;28;20221;-76
2022/05/10 11:53:31;;;;;;;5.50;2.03;;;;;;;23.89;nan;95292.03;4989915;28;20207;-77
2022/05/10 11:55:59;;;;;;;2.22;1.85;;;;;;;24.22;nan;95284.06;5005106;28;20252;-78
2022/05/10 11:58:31;;;;;;;2.97;1.95;;;;;;;24.61;nan;95268.66;5007271;28;20275;-75
2022/05/10 12:00:59;;;;;;;2.67;2.10;;;;;;;24.49;nan;95274.91;5006085;28;20677;-76
2022/05/10 12:03:49;;;;;;;2.35;2.15;;;;;;;24.85;nan;95278.72;5006047;28;20208;-75
2022/05/10 12:06:42;;;;;;;3.05;2.85;;;;;;;25.27;nan;95266.34;5005445;28;20689;-76
2022/05/10 12:09:17;;;;;;;2.40;2.17;;;;;;;25.94;nan;95255.97;5005548;28;20730;-76
2022/05/10 12:11:44;;;;;;;3.33;2.17;;;;;;;26.34;nan;95257.53;5005225;28;20274;-77
2022/05/10 12:24:01;;;;;;;2.60;1.60;;;;;;;25.77;nan;95244.47;5005112;28;20830;-76
2022/05/10 12:26:38;;;;;;;2.60;2.50;;;;;;;25.46;nan;95247.34;5004344;28;20200;-76
2022/05/10 12:29:06;;;;;;;2.08;1.98;;;;;;;25.08;nan;95256.75;5007493;28;21503;-76